createdAt,value
2023-09-17T00:02:20.052Z,82
2023-09-17T00:05:45.186Z,83
2023-09-17T00:09:10.402Z,82
2023-09-17T00:12:35.597Z,83
2023-09-17T00:16:00.811Z,83
2023-09-17T00:19:26.108Z,82
2023-09-17T00:22:51.209Z,83
2023-09-17T00:26:16.428Z,83
2023-09-17T00:29:41.635Z,83
2023-09-17T00:33:06.838Z,82
2023-09-17T00:36:32.090Z,82
2023-09-17T00:39:57.236Z,82
2023-09-17T00:43:22.463Z,82
2023-09-17T00:46:47.711Z,83
2023-09-17T00:50:12.861Z,82
2023-09-17T00:53:38.142Z,82
2023-09-17T00:57:03.278Z,82
2023-09-17T01:00:28.489Z,83
2023-09-17T01:03:53.993Z,83
2023-09-17T01:07:18.938Z,82
2023-09-17T01:10:44.164Z,82
2023-09-17T01:14:09.320Z,83
2023-09-17T01:17:34.531Z,83
2023-09-17T01:20:59.725Z,83
2023-09-17T01:24:24.921Z,83
2023-09-17T01:27:50.149Z,83
2023-09-17T01:31:15.333Z,83
2023-09-17T01:34:40.557Z,82
2023-09-17T01:38:05.730Z,82
2023-09-17T01:41:30.926Z,83
2023-09-17T01:44:56.153Z,82
2023-09-17T01:48:21.308Z,82
2023-09-17T01:51:46.501Z,83
2023-09-17T01:55:11.722Z,82
2023-09-17T01:58:36.968Z,83
2023-09-17T02:02:02.222Z,82
2023-09-17T02:05:27.304Z,82
2023-09-17T02:08:52.511Z,83
2023-09-17T02:12:17.725Z,83
2023-09-17T02:15:42.919Z,82
2023-09-17T02:19:08.184Z,82
2023-09-17T02:22:33.364Z,83
2023-09-17T02:25:58.520Z,83
2023-09-17T02:29:23.707Z,83
2023-09-17T02:32:48.922Z,83
2023-09-17T02:36:14.118Z,83
2023-09-17T02:39:39.252Z,84
2023-09-17T02:43:04.451Z,84
2023-09-17T02:46:29.677Z,85
2023-09-17T02:49:54.851Z,86
2023-09-17T02:53:21.573Z,85
2023-09-17T02:56:45.258Z,85
2023-09-17T03:00:10.719Z,85
2023-09-17T03:03:35.718Z,86
2023-09-17T03:07:00.813Z,86
2023-09-17T03:10:26.044Z,86
2023-09-17T03:13:51.398Z,86
2023-09-17T03:17:16.466Z,86
2023-09-17T03:20:41.569Z,86
2023-09-17T03:24:06.751Z,86
2023-09-17T03:27:31.981Z,86
2023-09-17T03:30:57.169Z,85
2023-09-17T03:34:22.374Z,85
2023-09-17T03:37:47.593Z,85
2023-09-17T03:41:12.784Z,85
2023-09-17T03:44:38.013Z,85
2023-09-17T03:48:03.185Z,86
2023-09-17T03:51:28.342Z,86
2023-09-17T03:54:53.529Z,86
2023-09-17T03:58:18.763Z,85
2023-09-17T04:01:44.013Z,85
2023-09-17T04:05:09.122Z,84
2023-09-17T04:08:34.350Z,84
2023-09-17T04:11:59.554Z,83
2023-09-17T04:15:24.768Z,84
2023-09-17T04:18:50.000Z,85
2023-09-17T04:22:15.137Z,86
2023-09-17T04:25:40.403Z,85
2023-09-17T04:29:05.533Z,85
2023-09-17T04:32:30.868Z,84
2023-09-17T04:35:55.994Z,85
2023-09-17T04:39:21.152Z,84
2023-09-17T04:42:46.365Z,83
2023-09-17T04:46:11.573Z,83
2023-09-17T04:49:36.775Z,84
2023-09-17T04:53:01.948Z,84
2023-09-17T04:56:27.109Z,84
2023-09-17T04:59:52.292Z,84
2023-09-17T05:03:17.675Z,85
2023-09-17T05:06:42.686Z,86
2023-09-17T05:10:07.926Z,85
2023-09-17T05:13:33.113Z,85
2023-09-17T05:16:58.323Z,84
2023-09-17T05:20:23.530Z,84
2023-09-17T05:23:48.935Z,84
2023-09-17T05:27:13.973Z,84
2023-09-17T05:30:39.177Z,83
2023-09-17T05:34:04.382Z,83
2023-09-17T05:37:29.632Z,85
2023-09-17T05:40:54.857Z,86
2023-09-17T05:44:20.073Z,86
2023-09-17T05:47:45.275Z,86
2023-09-17T05:51:10.491Z,85
2023-09-17T05:54:35.662Z,84
2023-09-17T05:58:00.899Z,85
2023-09-17T06:01:26.241Z,84
2023-09-17T06:04:51.377Z,84
2023-09-17T06:08:16.534Z,84
2023-09-17T06:11:41.707Z,84
2023-09-17T06:15:06.938Z,84
2023-09-17T06:18:32.168Z,84
2023-09-17T06:21:57.317Z,86
2023-09-17T06:25:22.516Z,84
2023-09-17T06:28:47.774Z,83
2023-09-17T06:32:12.965Z,82
2023-09-17T06:35:38.177Z,84
2023-09-17T06:39:03.347Z,86
2023-09-17T06:42:28.552Z,86
2023-09-17T06:45:53.812Z,86
2023-09-17T06:49:19.021Z,85
2023-09-17T06:52:44.281Z,85
2023-09-17T06:56:09.416Z,85
2023-09-17T06:59:34.649Z,85
2023-09-17T07:02:59.876Z,84
2023-09-17T07:06:25.086Z,83
2023-09-17T07:09:50.290Z,83
2023-09-17T07:13:15.467Z,85
2023-09-17T07:16:40.963Z,84
2023-09-17T07:20:05.877Z,84
2023-09-17T07:23:31.157Z,85
2023-09-17T07:27:00.695Z,86
2023-09-17T07:30:26.052Z,85
2023-09-17T07:33:51.407Z,84
2023-09-17T07:37:16.418Z,83
2023-09-17T07:40:41.581Z,82
2023-09-17T07:44:06.888Z,82
2023-09-17T07:47:32.860Z,83
2023-09-17T07:50:58.006Z,82
2023-09-17T07:54:23.217Z,81
2023-09-17T07:57:48.393Z,80
2023-09-17T08:01:13.699Z,81
2023-09-17T08:04:38.975Z,79
2023-09-17T08:08:04.200Z,78
2023-09-17T08:11:29.371Z,78
2023-09-17T08:14:54.566Z,77
2023-09-17T08:18:19.782Z,76
2023-09-17T08:21:44.905Z,76
2023-09-17T08:25:10.103Z,76
2023-09-17T08:28:35.317Z,75
2023-09-17T08:32:00.444Z,76
2023-09-17T08:35:25.672Z,76
2023-09-17T08:38:50.848Z,76
2023-09-17T08:42:16.032Z,75
2023-09-17T08:45:41.242Z,75
2023-09-17T08:49:06.506Z,74
2023-09-17T08:52:31.837Z,75
2023-09-17T08:55:56.939Z,73
2023-09-17T08:59:22.150Z,73
2023-09-17T09:02:47.445Z,71
2023-09-17T09:06:13.403Z,71
2023-09-17T09:09:38.669Z,71
2023-09-17T09:13:03.833Z,70
2023-09-17T09:16:29.183Z,71
2023-09-17T09:19:54.348Z,70
2023-09-17T09:23:19.527Z,68
2023-09-17T09:27:00.430Z,68
2023-09-17T09:30:29.426Z,69
2023-09-17T09:34:00.838Z,66
2023-09-17T09:37:32.309Z,67
2023-09-17T09:41:06.540Z,66
2023-09-17T09:44:44.398Z,67
2023-09-17T09:48:14.939Z,67
2023-09-17T09:51:48.806Z,65
2023-09-17T09:55:18.838Z,66
2023-09-17T09:58:53.028Z,66
2023-09-17T10:02:24.112Z,65
2023-09-17T10:05:49.697Z,66
2023-09-17T10:09:14.957Z,64
2023-09-17T10:12:40.165Z,65
2023-09-17T10:16:05.779Z,64
2023-09-17T10:19:31.128Z,64
2023-09-17T10:22:56.340Z,65
2023-09-17T10:26:21.551Z,62
2023-09-17T10:29:46.746Z,64
2023-09-17T10:33:11.941Z,63
2023-09-17T10:36:37.154Z,62
2023-09-17T10:40:02.333Z,62
2023-09-17T10:43:27.578Z,60
2023-09-17T10:46:52.747Z,61
2023-09-17T10:50:17.906Z,61
2023-09-17T10:53:43.144Z,62
2023-09-17T10:57:08.307Z,61
2023-09-17T11:00:35.809Z,62
2023-09-17T11:03:58.684Z,60
2023-09-17T11:07:23.891Z,58
2023-09-17T11:10:49.125Z,58
2023-09-17T11:14:14.277Z,58
2023-09-17T11:17:39.512Z,58
2023-09-17T11:21:04.715Z,59
2023-09-17T11:24:29.898Z,60
2023-09-17T11:27:55.128Z,60
2023-09-17T11:31:20.307Z,60
2023-09-17T11:34:45.558Z,59
2023-09-17T11:38:10.787Z,58
2023-09-17T11:41:36.708Z,56
2023-09-17T11:45:01.197Z,56
2023-09-17T11:48:26.876Z,55
2023-09-17T11:51:52.070Z,56
2023-09-17T11:55:17.282Z,55
2023-09-17T11:58:42.589Z,57
2023-09-17T12:02:07.841Z,57
2023-09-17T12:05:32.983Z,57
2023-09-17T12:09:00.015Z,55
2023-09-17T12:12:29.167Z,56
2023-09-17T12:15:54.396Z,56
2023-09-17T12:19:20.709Z,58
2023-09-17T12:22:45.924Z,57
2023-09-17T12:26:11.293Z,57
2023-09-17T12:29:36.509Z,57
2023-09-17T12:33:01.796Z,54
2023-09-17T12:36:27.186Z,53
2023-09-17T12:39:52.372Z,55
2023-09-17T12:43:17.636Z,55
2023-09-17T12:46:42.923Z,55
2023-09-17T12:50:08.181Z,54
2023-09-17T12:53:33.477Z,55
2023-09-17T12:56:58.738Z,54
2023-09-17T13:00:24.008Z,55
2023-09-17T13:03:49.256Z,54
2023-09-17T13:07:14.549Z,55
2023-09-17T13:10:39.853Z,55
2023-09-17T13:14:05.132Z,54
2023-09-17T13:17:30.614Z,53
2023-09-17T13:20:55.658Z,55
2023-09-17T13:24:20.930Z,53
2023-09-17T13:27:46.220Z,53
2023-09-17T13:31:11.464Z,55
2023-09-17T13:34:36.733Z,55
2023-09-17T13:38:02.069Z,55
2023-09-17T13:41:27.316Z,55
2023-09-17T13:44:52.691Z,56
2023-09-17T13:48:17.956Z,57
2023-09-17T13:51:43.300Z,55
2023-09-17T13:55:08.600Z,55
2023-09-17T13:58:33.968Z,56
2023-09-17T14:01:59.430Z,55
2023-09-17T14:05:24.671Z,54
2023-09-17T14:08:59.689Z,55
2023-09-17T14:12:24.998Z,54
2023-09-17T14:15:50.421Z,55
2023-09-17T14:19:16.423Z,54
2023-09-17T14:22:41.685Z,56
2023-09-17T14:26:07.031Z,55
2023-09-17T14:29:32.267Z,55
2023-09-17T14:32:57.641Z,55
2023-09-17T14:36:22.891Z,56
2023-09-17T14:39:48.166Z,56
2023-09-17T14:43:13.421Z,56
2023-09-17T14:46:38.803Z,57
2023-09-17T14:50:04.079Z,57
2023-09-17T14:53:29.355Z,57
2023-09-17T14:56:54.577Z,56
2023-09-17T15:00:19.906Z,56
2023-09-17T15:03:45.296Z,56
2023-09-17T15:07:10.497Z,57
2023-09-17T15:10:35.846Z,57
2023-09-17T15:47:37.785Z,61
2023-09-17T15:51:03.118Z,62
2023-09-17T15:54:28.681Z,61
2023-09-17T15:57:54.013Z,62
2023-09-17T16:01:19.367Z,63
2023-09-17T16:04:44.698Z,63
2023-09-17T16:08:10.212Z,64
2023-09-17T16:11:35.520Z,65
2023-09-17T16:15:00.808Z,64
2023-09-17T16:18:26.053Z,64
2023-09-17T16:21:51.324Z,65
2023-09-17T16:25:16.617Z,66
2023-09-17T16:28:41.986Z,66
2023-09-17T16:32:07.330Z,66
2023-09-17T16:35:32.614Z,67
2023-09-17T16:38:58.826Z,68
2023-09-17T16:42:24.101Z,67
2023-09-17T16:45:49.427Z,69
2023-09-17T16:49:14.720Z,69
2023-09-17T16:52:45.137Z,70
2023-09-17T16:56:10.627Z,70
2023-09-17T16:59:35.927Z,69
2023-09-17T17:03:01.463Z,70
2023-09-17T17:06:27.059Z,71
2023-09-17T17:09:52.493Z,72
2023-09-17T17:13:17.930Z,71
2023-09-17T17:16:43.261Z,71
2023-09-17T17:20:09.484Z,70
2023-09-17T17:23:34.819Z,71
2023-09-17T17:27:00.294Z,72
2023-09-17T17:30:25.663Z,72
2023-09-17T17:33:51.158Z,73
2023-09-17T17:37:16.380Z,74
2023-09-17T17:40:41.755Z,75
2023-09-17T17:44:07.101Z,76
2023-09-17T17:47:32.482Z,75
2023-09-17T17:50:57.738Z,74
2023-09-17T17:54:23.046Z,75
2023-09-17T17:57:48.397Z,76
2023-09-17T18:01:13.813Z,75
2023-09-17T18:04:39.132Z,76
2023-09-17T18:08:04.410Z,75
2023-09-17T18:11:29.694Z,75
2023-09-17T18:14:55.049Z,76
2023-09-17T18:18:20.526Z,75
2023-09-17T18:21:45.963Z,76
2023-09-17T18:25:11.400Z,77
2023-09-17T18:28:36.792Z,76
2023-09-17T18:32:02.637Z,77
2023-09-17T18:35:28.208Z,76
2023-09-17T18:38:53.813Z,77
2023-09-17T18:42:19.249Z,76
2023-09-17T18:45:45.258Z,77
2023-09-17T18:49:10.852Z,77
2023-09-17T18:52:37.953Z,76
2023-09-17T18:56:03.619Z,78
2023-09-17T18:59:29.264Z,78
2023-09-17T19:02:55.069Z,78
2023-09-17T19:06:20.652Z,77
2023-09-17T19:09:46.296Z,78
2023-09-17T19:13:11.643Z,78
2023-09-17T19:16:37.038Z,77
2023-09-17T19:20:02.442Z,78
2023-09-17T19:23:27.836Z,79
2023-09-17T19:26:53.274Z,78
2023-09-17T19:30:18.872Z,78
2023-09-17T19:33:44.127Z,77
2023-09-17T19:37:09.551Z,78
2023-09-17T19:40:34.983Z,79
2023-09-17T19:44:00.435Z,79
2023-09-17T19:47:25.922Z,79
2023-09-17T19:50:51.324Z,79
2023-09-17T19:54:16.801Z,79
2023-09-17T19:57:42.280Z,78
2023-09-17T20:01:07.778Z,78
2023-09-17T20:04:33.165Z,80
2023-09-17T20:07:58.508Z,79
2023-09-17T20:11:23.922Z,79
2023-09-17T20:14:49.232Z,80
2023-09-17T20:18:14.666Z,79
2023-09-17T20:21:40.036Z,79
2023-09-17T20:25:05.342Z,78
2023-09-17T20:28:30.699Z,79
2023-09-17T20:31:56.173Z,80
2023-09-17T20:35:21.499Z,80
2023-09-17T20:38:46.890Z,80
2023-09-17T20:42:12.196Z,80
2023-09-17T20:45:37.655Z,79
2023-09-17T20:49:03.000Z,80
2023-09-17T20:52:28.368Z,79
2023-09-17T20:55:53.792Z,80
2023-09-17T20:59:19.070Z,80
2023-09-17T21:02:44.585Z,80
2023-09-17T21:06:09.853Z,80
2023-09-17T21:09:35.247Z,79
2023-09-17T21:13:00.593Z,80
2023-09-17T21:16:25.922Z,80
2023-09-17T21:19:51.366Z,80
2023-09-17T21:23:16.748Z,81
2023-09-17T21:26:42.112Z,81
2023-09-17T21:30:07.496Z,81
2023-09-17T21:33:32.842Z,81
2023-09-17T21:36:58.234Z,80
2023-09-17T21:40:23.565Z,80
2023-09-17T21:43:49.073Z,80
2023-09-17T21:47:14.377Z,80
2023-09-17T21:50:39.642Z,81
2023-09-17T21:54:05.022Z,80
2023-09-17T21:57:30.344Z,80
2023-09-17T22:00:55.700Z,80
2023-09-17T22:04:21.075Z,80
2023-09-17T22:07:46.362Z,81
2023-09-17T22:11:11.700Z,81
2023-09-17T22:14:36.961Z,82
2023-09-17T22:18:02.327Z,82
2023-09-17T22:21:27.871Z,82
2023-09-17T22:24:53.185Z,81
2023-09-17T22:28:18.550Z,81
2023-09-17T22:31:43.868Z,80
2023-09-17T22:35:09.197Z,81
2023-09-17T22:38:34.566Z,81
2023-09-17T22:41:59.874Z,82
2023-09-17T22:45:25.197Z,82
2023-09-17T22:48:50.840Z,82
2023-09-17T22:52:15.799Z,82
2023-09-17T22:55:41.225Z,82
2023-09-17T22:59:06.444Z,82
2023-09-17T23:02:31.898Z,82
2023-09-17T23:05:57.123Z,82
2023-09-17T23:09:22.408Z,81
2023-09-17T23:12:47.778Z,82
2023-09-17T23:16:13.143Z,82
2023-09-17T23:19:38.431Z,82
2023-09-17T23:23:03.748Z,82
2023-09-17T23:26:29.193Z,82
2023-09-17T23:29:54.473Z,83
2023-09-17T23:33:19.811Z,83
2023-09-17T23:36:45.048Z,83
2023-09-17T23:40:10.362Z,83
2023-09-17T23:43:35.700Z,83
2023-09-17T23:47:01.081Z,84
2023-09-17T23:50:26.364Z,83
2023-09-17T23:53:51.663Z,83
2023-09-17T23:57:16.999Z,83
